Terminal Aerodrome Forecast
Issued by NWS

Home | Current Version | Previous Version | Text Only | Print | Product List | Glossary On
Versions: 1 2 3 4 5 6 7 8 9 10 11 12 13 14 15 16 17
000
FTUS44 KEPZ 132300 RRA
TAFDMN
TAF
KDMN 132341Z 1400/1424 07008KT P6SM VCTS SCT070CB BKN110 BKN250
      TEMPO 1400/1402 VRB20G36KT 3SM TSRA BKN060CB OVC100
     FM140600 33007KT P6SM SCT080 SCT140 BKN250
     FM141700 17007KT P6SM VCTS SCT080CB SCT140 SCT250=

USA.gov is the U.S. government's official web portal to all federal, state and local government web resources and services.